createdAt,value
2024-02-26T00:00:09.496Z,55.74
2024-02-26T00:01:09.521Z,55.39
2024-02-26T00:02:09.620Z,55.49
2024-02-26T00:03:09.723Z,55.46
2024-02-26T00:04:09.798Z,55.18
2024-02-26T00:05:09.834Z,54.91
2024-02-26T00:06:09.899Z,55.17
2024-02-26T00:07:09.931Z,55.40
2024-02-26T00:08:09.868Z,55.27
2024-02-26T00:09:09.912Z,55.42
2024-02-26T00:10:09.921Z,55.47
2024-02-26T00:11:10.007Z,55.58
2024-02-26T00:12:10.135Z,55.47
2024-02-26T00:13:10.066Z,55.31
2024-02-26T00:14:10.139Z,55.40
2024-02-26T00:15:10.245Z,55.55
2024-02-26T00:16:10.227Z,55.65
2024-02-26T00:17:10.277Z,56.18
2024-02-26T00:18:10.498Z,56.36
2024-02-26T00:19:10.591Z,56.64
2024-02-26T00:20:10.454Z,56.55
2024-02-26T00:21:10.474Z,56.52
2024-02-26T00:22:10.507Z,56.46
2024-02-26T00:23:10.480Z,56.53
2024-02-26T00:24:10.579Z,56.58
2024-02-26T00:25:10.614Z,56.66
2024-02-26T00:26:10.644Z,56.53
2024-02-26T00:27:10.821Z,56.60
2024-02-26T00:28:10.827Z,56.70
2024-02-26T00:29:10.843Z,56.89
2024-02-26T00:30:10.961Z,56.62
2024-02-26T00:31:10.948Z,56.64
2024-02-26T00:32:11.067Z,56.73
2024-02-26T00:33:11.272Z,56.61
2024-02-26T00:34:11.290Z,56.64
2024-02-26T00:35:11.250Z,56.62
2024-02-26T00:36:11.349Z,56.72
2024-02-26T00:37:11.339Z,56.93
2024-02-26T00:38:11.342Z,57.16
2024-02-26T00:39:11.470Z,57.24
2024-02-26T00:40:11.471Z,57.62
2024-02-26T00:41:11.654Z,57.90
2024-02-26T00:42:11.713Z,57.99
2024-02-26T00:43:11.683Z,58.13
2024-02-26T00:44:11.689Z,58.07
2024-02-26T00:45:11.798Z,57.70
2024-02-26T00:46:11.817Z,57.31
2024-02-26T00:47:11.912Z,57.10
2024-02-26T00:48:12.017Z,57.46
2024-02-26T00:49:12.129Z,57.68
2024-02-26T00:50:12.126Z,57.76
2024-02-26T00:51:12.173Z,57.47
2024-02-26T00:52:12.226Z,57.49
2024-02-26T00:53:12.221Z,57.30
2024-02-26T00:54:12.288Z,57.03
2024-02-26T00:55:12.339Z,57.03
2024-02-26T00:56:12.394Z,56.96
2024-02-26T00:57:12.500Z,56.62
2024-02-26T00:58:12.441Z,56.26
2024-02-26T00:59:12.492Z,56.14
2024-02-26T01:00:12.653Z,55.92
2024-02-26T01:01:12.599Z,55.91
2024-02-26T01:02:12.591Z,55.99
2024-02-26T01:03:12.677Z,55.90
2024-02-26T01:04:12.677Z,55.83
2024-02-26T01:05:12.716Z,56.09
2024-02-26T01:06:12.858Z,56.36
2024-02-26T01:07:12.937Z,56.21
2024-02-26T01:08:12.915Z,56.00
2024-02-26T01:09:12.939Z,55.96
2024-02-26T01:10:13.498Z,55.76
2024-02-26T01:11:12.903Z,55.53
2024-02-26T01:12:13.001Z,55.48
2024-02-26T01:13:13.608Z,55.67
2024-02-26T01:14:12.996Z,55.58
2024-02-26T01:15:13.118Z,55.40
2024-02-26T01:16:13.081Z,55.17
2024-02-26T01:17:13.148Z,54.93
2024-02-26T01:18:13.370Z,54.89
2024-02-26T01:19:13.390Z,55.13
2024-02-26T01:20:13.266Z,55.25
2024-02-26T01:21:13.316Z,55.26
2024-02-26T01:22:13.300Z,55.45
2024-02-26T01:23:13.392Z,55.49
2024-02-26T01:24:13.492Z,55.55
2024-02-26T01:25:13.448Z,55.52
2024-02-26T01:26:13.490Z,55.29
2024-02-26T01:27:13.498Z,55.33
2024-02-26T01:28:13.467Z,55.53
2024-02-26T01:29:13.596Z,55.40
2024-02-26T01:30:13.703Z,55.16
2024-02-26T01:31:13.645Z,55.15
2024-02-26T01:32:13.713Z,55.09
2024-02-26T01:33:13.884Z,55.02
2024-02-26T01:34:14.033Z,55.19
2024-02-26T01:35:13.886Z,55.75
2024-02-26T01:36:13.944Z,56.32
2024-02-26T01:37:14.082Z,56.72
2024-02-26T01:38:14.113Z,56.93
2024-02-26T01:39:14.246Z,56.83
2024-02-26T01:40:14.283Z,56.74
2024-02-26T01:41:14.288Z,56.55
2024-02-26T01:42:14.427Z,56.25
2024-02-26T01:43:14.480Z,56.04
2024-02-26T01:44:14.542Z,55.83
2024-02-26T01:45:14.593Z,55.74
2024-02-26T01:46:14.544Z,55.72
2024-02-26T01:47:14.620Z,55.50
2024-02-26T01:48:16.033Z,55.54
2024-02-26T01:49:14.911Z,55.35
2024-02-26T01:50:14.792Z,55.24
2024-02-26T01:51:14.888Z,55.30
2024-02-26T01:52:14.889Z,55.61
2024-02-26T01:53:14.926Z,55.53
2024-02-26T01:54:15.078Z,55.78
2024-02-26T01:55:15.066Z,56.08
2024-02-26T01:56:15.100Z,56.06
2024-02-26T01:57:15.254Z,56.17
2024-02-26T01:58:15.272Z,56.09
2024-02-26T01:59:15.333Z,56.10
2024-02-26T02:00:15.483Z,55.93
2024-02-26T02:01:15.493Z,55.88
2024-02-26T02:02:15.499Z,56.32
2024-02-26T02:03:15.602Z,56.27
2024-02-26T02:04:15.646Z,56.20
2024-02-26T02:05:15.686Z,56.12
2024-02-26T02:06:15.761Z,55.92
2024-02-26T02:07:15.814Z,55.72
2024-02-26T02:08:15.861Z,55.60
2024-02-26T02:09:15.953Z,55.44
2024-02-26T02:10:15.951Z,55.58
2024-02-26T02:11:16.104Z,55.72
2024-02-26T02:12:16.076Z,55.95
2024-02-26T02:13:16.094Z,56.15
2024-02-26T02:14:16.092Z,56.03
2024-02-26T02:15:16.159Z,55.76
2024-02-26T02:16:16.164Z,55.46
2024-02-26T02:17:16.194Z,55.20
2024-02-26T02:18:16.329Z,55.44
2024-02-26T02:19:16.348Z,55.59
2024-02-26T02:20:16.353Z,55.80
2024-02-26T02:21:16.435Z,56.08
2024-02-26T02:22:16.399Z,56.25
2024-02-26T02:23:16.412Z,56.27
2024-02-26T02:24:16.490Z,56.56
2024-02-26T02:25:16.505Z,56.69
2024-02-26T02:26:16.566Z,56.67
2024-02-26T02:27:16.646Z,56.94
2024-02-26T02:28:16.690Z,56.58
2024-02-26T02:29:16.767Z,56.55
2024-02-26T02:30:16.886Z,56.52
2024-02-26T02:31:16.927Z,56.37
2024-02-26T02:32:16.974Z,56.03
2024-02-26T02:33:17.106Z,55.59
2024-02-26T02:34:17.150Z,55.68
2024-02-26T02:35:17.093Z,55.95
2024-02-26T02:36:17.170Z,55.91
2024-02-26T02:37:17.238Z,56.00
2024-02-26T02:38:17.325Z,55.87
2024-02-26T02:39:17.431Z,55.69
2024-02-26T02:40:17.504Z,55.79
2024-02-26T02:41:17.534Z,55.71
2024-02-26T02:42:17.625Z,55.72
2024-02-26T02:43:17.646Z,55.83
2024-02-26T02:44:17.590Z,55.74
2024-02-26T02:45:17.724Z,55.18
2024-02-26T02:46:17.697Z,55.16
2024-02-26T02:47:17.749Z,55.00
2024-02-26T02:48:17.893Z,54.69
2024-02-26T02:49:17.971Z,54.61
2024-02-26T02:50:17.888Z,54.85
2024-02-26T02:51:17.980Z,54.77
2024-02-26T02:52:17.996Z,54.50
2024-02-26T02:53:18.037Z,54.73
2024-02-26T02:54:18.241Z,54.67
2024-02-26T02:55:18.179Z,54.33
2024-02-26T02:56:18.236Z,54.14
2024-02-26T02:57:18.320Z,54.00
2024-02-26T02:58:18.274Z,54.00
2024-02-26T02:59:18.352Z,53.73
2024-02-26T03:00:18.470Z,54.16
2024-02-26T03:01:18.527Z,54.75
2024-02-26T03:02:18.603Z,54.93
2024-02-26T03:03:18.755Z,54.75
2024-02-26T03:04:18.733Z,54.57
2024-02-26T03:05:18.793Z,54.51
2024-02-26T03:06:18.952Z,54.45
2024-02-26T03:07:19.016Z,54.38
2024-02-26T03:08:19.075Z,54.35
2024-02-26T03:09:19.109Z,55.02
2024-02-26T03:10:19.174Z,55.53
2024-02-26T03:11:19.289Z,55.43
2024-02-26T03:12:19.358Z,55.33
2024-02-26T03:13:19.362Z,55.32
2024-02-26T03:14:19.401Z,55.22
2024-02-26T03:15:19.490Z,55.19
2024-02-26T03:16:19.499Z,55.10
2024-02-26T03:17:19.542Z,54.47
2024-02-26T03:18:19.735Z,54.61
2024-02-26T03:19:19.751Z,54.81
2024-02-26T03:20:19.710Z,54.40
2024-02-26T03:21:19.871Z,54.21
2024-02-26T03:22:19.837Z,53.72
2024-02-26T03:23:19.840Z,53.63
2024-02-26T03:24:20.154Z,52.82
2024-02-26T03:25:20.002Z,53.96
2024-02-26T03:26:20.027Z,54.16
2024-02-26T03:27:20.140Z,54.20
2024-02-26T03:28:20.091Z,54.18
2024-02-26T03:29:20.135Z,54.24
2024-02-26T03:30:20.231Z,54.42
2024-02-26T03:31:20.246Z,54.57
2024-02-26T03:32:20.369Z,54.52
2024-02-26T03:33:20.590Z,54.25
2024-02-26T03:34:20.659Z,54.29
2024-02-26T03:35:20.521Z,54.36
2024-02-26T03:36:20.640Z,54.69
2024-02-26T03:37:20.667Z,54.57
2024-02-26T03:38:20.716Z,54.63
2024-02-26T03:39:20.766Z,54.68
2024-02-26T03:40:20.797Z,54.30
2024-02-26T03:41:20.798Z,53.83
2024-02-26T03:42:20.958Z,53.77
2024-02-26T03:43:20.956Z,53.68
2024-02-26T03:44:20.996Z,53.72
2024-02-26T03:45:21.500Z,53.82
2024-02-26T03:46:21.072Z,53.78
2024-02-26T03:47:21.199Z,53.91
2024-02-26T03:48:21.412Z,53.84
2024-02-26T03:49:21.374Z,53.51
2024-02-26T03:50:21.303Z,53.65
2024-02-26T03:51:21.388Z,53.72
2024-02-26T03:52:21.410Z,53.77
2024-02-26T03:53:21.425Z,53.88
2024-02-26T03:54:21.511Z,54.01
2024-02-26T03:55:21.499Z,54.04
2024-02-26T03:56:21.505Z,54.02
2024-02-26T03:57:21.510Z,53.85
2024-02-26T03:58:21.546Z,54.16
2024-02-26T03:59:21.627Z,54.10
2024-02-26T04:00:23.278Z,54.33
2024-02-26T04:01:21.785Z,54.51
2024-02-26T04:02:21.722Z,54.18
2024-02-26T04:03:21.903Z,53.74
2024-02-26T04:04:21.899Z,53.70
2024-02-26T04:05:21.942Z,53.74
2024-02-26T04:06:22.101Z,53.82
2024-02-26T04:07:22.096Z,53.43
2024-02-26T04:08:22.086Z,53.01
2024-02-26T04:09:22.177Z,52.44
2024-02-26T04:10:22.128Z,52.45
2024-02-26T04:11:22.205Z,52.46
2024-02-26T04:12:23.530Z,52.64
2024-02-26T04:13:22.351Z,52.96
2024-02-26T04:14:22.400Z,53.30
2024-02-26T04:15:22.522Z,53.38
2024-02-26T04:16:22.477Z,53.16
2024-02-26T04:17:22.533Z,53.44
2024-02-26T04:18:22.714Z,53.88
2024-02-26T04:19:22.939Z,53.82
2024-02-26T04:20:22.758Z,53.68
2024-02-26T04:21:22.877Z,53.46
2024-02-26T04:22:22.851Z,53.63
2024-02-26T04:23:22.891Z,53.75
2024-02-26T04:24:22.970Z,54.18
2024-02-26T04:25:23.046Z,54.28
2024-02-26T04:26:23.095Z,54.63
2024-02-26T04:27:23.231Z,54.78
2024-02-26T04:28:23.231Z,54.73
2024-02-26T04:29:23.298Z,54.82
2024-02-26T04:30:23.508Z,54.77
2024-02-26T04:31:23.404Z,54.70
2024-02-26T04:32:23.557Z,54.50
2024-02-26T04:33:23.512Z,54.39
2024-02-26T04:34:23.627Z,54.50
2024-02-26T04:35:23.498Z,54.73
2024-02-26T04:36:23.554Z,54.58
2024-02-26T04:37:23.566Z,54.71
2024-02-26T04:38:23.635Z,54.77
2024-02-26T04:39:23.833Z,54.86
2024-02-26T04:40:23.804Z,55.03
2024-02-26T04:41:23.834Z,54.97
2024-02-26T04:42:24.011Z,54.86
2024-02-26T04:43:23.943Z,54.91
2024-02-26T04:44:24.043Z,55.11
2024-02-26T04:45:24.194Z,55.24
2024-02-26T04:46:24.136Z,55.31
2024-02-26T04:47:24.171Z,55.53
2024-02-26T04:48:24.332Z,55.61
2024-02-26T04:49:24.294Z,55.66
2024-02-26T04:50:24.321Z,55.69
2024-02-26T04:51:24.459Z,55.79
2024-02-26T04:52:24.521Z,55.58
2024-02-26T04:53:24.623Z,55.45
2024-02-26T04:54:24.771Z,55.54
2024-02-26T04:55:24.671Z,55.88
2024-02-26T04:56:24.653Z,56.00
2024-02-26T04:57:24.758Z,56.20
2024-02-26T04:58:24.724Z,56.40
2024-02-26T04:59:24.733Z,56.44
2024-02-26T05:00:24.832Z,56.57
2024-02-26T05:01:24.861Z,56.28
2024-02-26T05:02:24.829Z,55.98
2024-02-26T05:03:24.859Z,55.71
2024-02-26T05:04:24.915Z,55.57
2024-02-26T05:05:24.960Z,55.33
2024-02-26T05:06:24.941Z,55.13
2024-02-26T05:07:24.923Z,54.89
2024-02-26T05:08:24.898Z,54.85
2024-02-26T05:09:24.959Z,54.82
2024-02-26T05:10:24.942Z,55.03
2024-02-26T05:11:25.080Z,54.88
2024-02-26T05:12:25.053Z,55.11
2024-02-26T05:13:25.085Z,55.19
2024-02-26T05:14:25.092Z,55.07
2024-02-26T05:15:25.285Z,55.07
2024-02-26T05:16:25.148Z,55.28
2024-02-26T05:17:26.568Z,55.55
2024-02-26T05:18:25.340Z,55.38
2024-02-26T05:19:25.346Z,55.21
2024-02-26T05:20:25.324Z,55.10
2024-02-26T05:21:25.406Z,55.04
2024-02-26T05:22:25.448Z,55.12
2024-02-26T05:23:25.509Z,55.13
2024-02-26T05:24:25.701Z,55.00
2024-02-26T05:25:25.622Z,55.03
2024-02-26T05:26:25.625Z,54.92
2024-02-26T05:27:25.718Z,54.98
2024-02-26T05:28:25.689Z,55.00
2024-02-26T05:29:25.666Z,55.17
2024-02-26T05:30:25.833Z,55.15
2024-02-26T05:31:33.427Z,55.56
2024-02-26T05:32:33.442Z,55.53
2024-02-26T05:33:33.485Z,55.55
2024-02-26T05:34:33.493Z,55.94
2024-02-26T05:35:33.489Z,56.05
2024-02-26T05:36:33.475Z,55.88
2024-02-26T05:37:33.496Z,55.96
2024-02-26T05:38:33.513Z,56.10
2024-02-26T05:39:33.582Z,55.87
2024-02-26T05:40:33.547Z,55.87
2024-02-26T05:41:33.571Z,55.98
2024-02-26T05:42:33.592Z,56.21
2024-02-26T05:43:33.594Z,56.19
2024-02-26T05:44:33.626Z,56.46
2024-02-26T05:45:33.714Z,56.61
2024-02-26T05:46:33.700Z,56.57
2024-02-26T05:47:33.686Z,56.50
2024-02-26T05:48:33.947Z,56.43
2024-02-26T05:49:33.856Z,56.34
2024-02-26T05:50:33.786Z,56.39
2024-02-26T05:51:33.836Z,56.39
2024-02-26T05:52:33.843Z,56.35
2024-02-26T05:53:33.884Z,56.23
2024-02-26T05:54:33.902Z,55.93
2024-02-26T05:55:33.914Z,55.90
2024-02-26T05:56:33.957Z,55.96
2024-02-26T05:57:33.984Z,56.16
2024-02-26T05:58:33.972Z,56.36
2024-02-26T05:59:34.070Z,56.31
2024-02-26T06:02:03.038Z,58.08
2024-02-26T06:02:40.402Z,56.62
2024-02-26T06:03:40.480Z,56.35
2024-02-26T06:04:40.421Z,56.35
2024-02-26T06:05:40.511Z,56.22
2024-02-26T06:06:43.745Z,56.21
2024-02-26T06:07:40.451Z,56.07
2024-02-26T06:08:40.487Z,56.21
2024-02-26T06:09:40.519Z,56.09
2024-02-26T06:10:40.523Z,56.02
2024-02-26T06:11:40.529Z,56.14
2024-02-26T06:12:40.547Z,56.39
2024-02-26T06:13:40.598Z,56.34
2024-02-26T06:14:40.602Z,56.40
2024-02-26T06:15:40.675Z,56.21
2024-02-26T06:16:40.744Z,56.34
2024-02-26T06:17:40.744Z,56.51
2024-02-26T06:18:40.937Z,56.61
2024-02-26T06:19:40.815Z,56.20
2024-02-26T06:20:40.809Z,55.95
2024-02-26T06:21:40.819Z,56.21
2024-02-26T06:22:40.855Z,56.36
2024-02-26T06:23:40.838Z,55.71
2024-02-26T06:24:40.885Z,55.43
2024-02-26T06:25:40.889Z,55.20
2024-02-26T06:26:40.901Z,54.93
2024-02-26T06:27:40.895Z,54.67
2024-02-26T06:28:40.916Z,54.29
2024-02-26T06:29:40.971Z,54.17
2024-02-26T06:30:41.001Z,54.17
2024-02-26T06:31:41.040Z,54.21
2024-02-26T06:32:41.101Z,54.03
2024-02-26T06:33:41.128Z,54.02
2024-02-26T06:34:41.077Z,54.09
2024-02-26T06:35:41.014Z,53.92
2024-02-26T06:36:41.069Z,53.97
2024-02-26T06:37:41.027Z,53.77
2024-02-26T06:38:41.056Z,53.82
2024-02-26T06:39:41.110Z,53.87
2024-02-26T06:40:41.120Z,54.21
2024-02-26T06:41:41.878Z,54.58
2024-02-26T06:42:41.165Z,54.30
2024-02-26T06:43:41.147Z,54.33
2024-02-26T06:44:41.145Z,54.51
2024-02-26T06:47:13.671Z,57.15
2024-02-26T06:47:47.727Z,55.40
2024-02-26T06:48:47.601Z,54.85
2024-02-26T06:49:47.561Z,54.84
2024-02-26T06:50:47.545Z,54.43
2024-02-26T06:51:47.683Z,54.39
2024-02-26T06:52:47.594Z,54.69
2024-02-26T06:53:47.725Z,54.99
2024-02-26T06:54:48.405Z,55.17
2024-02-26T06:55:47.925Z,55.18
2024-02-26T06:56:48.234Z,55.12
2024-02-26T06:57:48.042Z,55.05
2024-02-26T06:58:48.208Z,55.05
2024-02-26T06:59:48.471Z,55.12
2024-02-26T07:00:49.267Z,54.68
2024-02-26T07:01:48.657Z,54.46
2024-02-26T07:02:48.364Z,54.23
2024-02-26T07:03:48.395Z,53.91
2024-02-26T07:04:48.488Z,53.73
2024-02-26T07:05:48.738Z,53.66
2024-02-26T07:06:48.928Z,53.52
2024-02-26T07:07:48.504Z,53.44
2024-02-26T07:08:48.631Z,53.53
2024-02-26T07:09:48.649Z,53.61
2024-02-26T07:10:48.698Z,54.10
2024-02-26T07:11:48.778Z,54.53
2024-02-26T07:12:49.355Z,54.96
2024-02-26T07:13:48.802Z,54.69
2024-02-26T07:14:48.992Z,54.60
2024-02-26T07:15:48.981Z,54.54
2024-02-26T07:16:48.942Z,54.53
2024-02-26T07:17:49.255Z,54.50
2024-02-26T07:18:49.207Z,54.22
2024-02-26T07:19:49.279Z,53.84
2024-02-26T07:20:49.504Z,54.04
2024-02-26T07:21:49.315Z,54.26
2024-02-26T07:22:49.295Z,54.33
2024-02-26T07:23:49.464Z,54.18
2024-02-26T07:24:50.237Z,54.08
2024-02-26T07:25:50.008Z,53.77
2024-02-26T07:26:49.596Z,53.84
2024-02-26T07:27:50.133Z,54.37
2024-02-26T07:28:49.734Z,54.88
2024-02-26T07:29:49.884Z,55.23
2024-02-26T07:30:49.858Z,54.96
2024-02-26T07:31:49.909Z,54.77
2024-02-26T07:32:51.622Z,54.58
2024-02-26T07:33:50.131Z,54.46
2024-02-26T07:34:50.132Z,54.32
2024-02-26T07:35:50.186Z,54.40
2024-02-26T07:36:50.217Z,54.74
2024-02-26T07:37:50.655Z,54.69
2024-02-26T07:38:50.607Z,54.78
2024-02-26T07:39:50.274Z,54.75
2024-02-26T07:40:56.208Z,54.64
2024-02-26T07:41:51.846Z,54.54
2024-02-26T07:42:50.504Z,54.43
2024-02-26T07:43:50.356Z,54.46
2024-02-26T07:44:50.410Z,54.36
2024-02-26T07:45:50.364Z,54.06
2024-02-26T07:46:50.752Z,53.65
2024-02-26T07:47:51.718Z,53.88
2024-02-26T07:48:50.728Z,53.78
2024-02-26T07:49:50.487Z,53.31
2024-02-26T07:50:50.466Z,53.04
2024-02-26T07:51:50.418Z,52.83
2024-02-26T07:52:50.694Z,52.71
2024-02-26T07:53:50.721Z,52.92
2024-02-26T07:54:50.666Z,53.36
2024-02-26T07:55:50.968Z,53.45
2024-02-26T07:56:50.903Z,53.44
2024-02-26T07:57:51.195Z,53.40
2024-02-26T07:58:50.973Z,53.38
2024-02-26T07:59:51.597Z,53.51
2024-02-26T08:00:51.135Z,53.31
2024-02-26T08:01:54.959Z,53.39
2024-02-26T08:02:52.652Z,53.43
2024-02-26T08:03:51.323Z,53.18
2024-02-26T08:04:51.302Z,53.49
2024-02-26T08:05:51.386Z,53.46
2024-02-26T08:06:51.444Z,53.76
2024-02-26T08:07:51.678Z,53.89
2024-02-26T08:08:51.201Z,53.84
2024-02-26T08:09:51.216Z,53.77
2024-02-26T08:10:51.381Z,53.66
2024-02-26T08:11:51.228Z,53.73
2024-02-26T08:12:51.697Z,53.59
2024-02-26T08:13:51.324Z,53.62
2024-02-26T08:14:51.427Z,53.82
2024-02-26T08:15:51.454Z,54.06
2024-02-26T08:16:51.516Z,54.08
2024-02-26T08:17:51.778Z,54.37
2024-02-26T08:18:51.600Z,54.70
2024-02-26T08:19:51.651Z,54.61
2024-02-26T08:20:51.631Z,54.44
2024-02-26T08:21:51.665Z,54.29
2024-02-26T08:22:51.725Z,54.42
2024-02-26T08:23:52.014Z,54.53
2024-02-26T08:24:52.799Z,54.46
2024-02-26T08:25:52.108Z,54.63
2024-02-26T08:26:52.008Z,52.23
2024-02-26T08:27:52.211Z,52.53
2024-02-26T08:28:52.017Z,53.54
2024-02-26T08:29:52.172Z,53.59
2024-02-26T08:30:52.144Z,53.46
2024-02-26T08:31:52.157Z,53.64
2024-02-26T08:32:53.081Z,53.16
2024-02-26T08:33:52.683Z,53.36
2024-02-26T08:34:52.406Z,53.29
2024-02-26T08:35:52.309Z,53.30
2024-02-26T08:36:52.411Z,53.28
2024-02-26T08:37:52.687Z,53.24
2024-02-26T08:38:52.522Z,53.18
2024-02-26T08:39:52.597Z,53.08
2024-02-26T08:40:52.553Z,52.95
2024-02-26T08:41:52.602Z,52.63
2024-02-26T08:42:52.616Z,52.68
2024-02-26T08:43:52.620Z,52.68
2024-02-26T08:44:52.697Z,52.02
2024-02-26T08:45:52.749Z,52.66
2024-02-26T08:46:53.816Z,52.76
2024-02-26T08:47:53.129Z,53.09
2024-02-26T08:48:52.991Z,53.52
2024-02-26T08:49:53.041Z,53.20
2024-02-26T08:50:53.174Z,52.83
2024-02-26T08:51:53.144Z,52.71
2024-02-26T08:52:53.718Z,52.97
2024-02-26T08:53:53.449Z,52.69
2024-02-26T08:54:53.295Z,52.88
2024-02-26T08:55:53.366Z,52.74
2024-02-26T08:56:53.530Z,52.62
2024-02-26T08:57:53.589Z,52.44
2024-02-26T08:58:53.450Z,52.01
2024-02-26T08:59:53.502Z,51.79
2024-02-26T09:00:53.606Z,51.94
2024-02-26T09:01:53.578Z,51.72
2024-02-26T09:02:53.725Z,51.10
2024-02-26T09:03:53.696Z,51.14
2024-02-26T09:04:53.761Z,51.17
2024-02-26T09:05:53.730Z,49.12
2024-02-26T09:06:53.740Z,49.80
2024-02-26T09:07:53.804Z,49.00
2024-02-26T09:08:53.869Z,48.32
2024-02-26T09:09:53.914Z,48.14
2024-02-26T09:10:53.885Z,48.08
2024-02-26T09:11:54.032Z,49.02
2024-02-26T09:12:54.229Z,49.48
2024-02-26T09:13:54.061Z,49.85
2024-02-26T09:14:54.093Z,50.42
2024-02-26T09:15:54.083Z,50.51
2024-02-26T09:16:54.070Z,50.18
2024-02-26T09:17:54.311Z,50.24
2024-02-26T09:18:55.248Z,50.50
2024-02-26T09:19:54.233Z,50.51
2024-02-26T09:20:54.262Z,50.59
2024-02-26T09:21:54.338Z,50.59
2024-02-26T09:22:55.022Z,50.57
2024-02-26T09:23:54.717Z,49.96
2024-02-26T09:24:54.289Z,49.87
2024-02-26T09:25:54.352Z,50.23
2024-02-26T09:26:54.664Z,50.21
2024-02-26T09:27:54.451Z,50.00
2024-02-26T09:28:54.530Z,50.05
2024-02-26T09:29:54.583Z,49.52
2024-02-26T09:30:54.953Z,47.93
2024-02-26T09:31:54.637Z,48.51
2024-02-26T09:32:54.874Z,49.66
2024-02-26T09:33:56.972Z,50.02
2024-02-26T09:34:54.903Z,49.50
2024-02-26T09:35:54.721Z,49.83
2024-02-26T09:36:58.228Z,50.46
2024-02-26T09:37:55.706Z,50.20
2024-02-26T09:39:00.672Z,49.58
2024-02-26T09:39:55.963Z,49.49
2024-02-26T09:40:54.951Z,49.47
2024-02-26T09:41:55.045Z,49.01
2024-02-26T09:42:54.918Z,48.75
2024-02-26T09:43:55.508Z,48.67
2024-02-26T09:44:55.041Z,48.91
2024-02-26T09:45:55.664Z,49.14
2024-02-26T09:46:55.001Z,49.52
2024-02-26T09:47:55.083Z,49.58
2024-02-26T09:48:55.941Z,49.53
2024-02-26T09:49:55.121Z,49.35
2024-02-26T09:50:55.068Z,49.54
2024-02-26T09:51:55.037Z,49.21
2024-02-26T09:52:56.081Z,49.62
2024-02-26T09:53:55.383Z,49.52
2024-02-26T09:54:55.009Z,49.57
2024-02-26T09:55:55.017Z,49.16
2024-02-26T09:57:00.242Z,48.84
2024-02-26T09:57:56.087Z,49.21
2024-02-26T09:58:55.400Z,49.05
2024-02-26T09:59:54.957Z,49.41
2024-02-26T10:00:54.992Z,49.50
2024-02-26T10:01:54.917Z,49.37
2024-02-26T10:02:54.897Z,49.04
2024-02-26T10:03:55.170Z,48.92
2024-02-26T10:04:54.934Z,48.64
2024-02-26T10:05:54.929Z,48.92
2024-02-26T10:06:54.916Z,48.77
2024-02-26T10:07:54.825Z,48.18
2024-02-26T10:08:54.909Z,47.97
2024-02-26T10:09:54.860Z,48.08
2024-02-26T10:10:54.970Z,48.17
2024-02-26T10:11:55.059Z,48.47
2024-02-26T10:12:55.044Z,48.89
2024-02-26T10:13:55.112Z,48.43
2024-02-26T10:14:55.158Z,48.33
2024-02-26T10:15:55.121Z,48.24
2024-02-26T10:16:55.259Z,48.75
2024-02-26T10:17:55.204Z,48.54
2024-02-26T10:18:58.755Z,48.05
2024-02-26T10:19:55.348Z,47.75
2024-02-26T10:20:55.172Z,47.58
2024-02-26T10:21:55.150Z,47.95
2024-02-26T10:22:55.174Z,48.26
2024-02-26T10:23:55.238Z,48.55
2024-02-26T10:24:55.165Z,48.42
2024-02-26T10:25:55.156Z,48.65
2024-02-26T10:26:55.388Z,48.62
2024-02-26T10:27:55.078Z,47.57
2024-02-26T10:28:55.901Z,47.15
2024-02-26T10:29:55.119Z,47.21
2024-02-26T10:30:55.109Z,45.91
2024-02-26T10:31:55.138Z,46.89
2024-02-26T10:32:55.417Z,47.33
2024-02-26T10:33:55.778Z,47.86
2024-02-26T10:34:55.419Z,47.69
2024-02-26T10:35:55.386Z,47.01
2024-02-26T10:36:55.732Z,46.65
2024-02-26T10:37:55.654Z,46.55
2024-02-26T10:38:56.529Z,46.05
2024-02-26T10:39:55.487Z,45.11
2024-02-26T10:40:55.472Z,44.25
2024-02-26T10:41:55.596Z,43.99
2024-02-26T10:42:55.431Z,44.74
2024-02-26T10:43:55.713Z,44.59
2024-02-26T10:44:55.987Z,43.84
2024-02-26T10:45:55.517Z,43.60
2024-02-26T10:46:55.623Z,43.98
2024-02-26T10:47:55.725Z,44.29
2024-02-26T10:48:55.955Z,44.18
2024-02-26T10:49:55.696Z,43.57
2024-02-26T10:50:55.579Z,43.50
2024-02-26T10:51:55.595Z,43.35
2024-02-26T10:52:55.776Z,42.85
2024-02-26T10:53:57.574Z,42.46
2024-02-26T10:55:01.153Z,42.03
2024-02-26T10:55:55.655Z,40.76
2024-02-26T10:56:55.514Z,40.09
2024-02-26T10:57:55.529Z,39.44
2024-02-26T10:58:55.736Z,38.66
2024-02-26T10:59:55.329Z,37.39
2024-02-26T11:00:55.598Z,36.55
2024-02-26T11:01:55.118Z,35.93
2024-02-26T11:02:55.082Z,31.62
2024-02-26T11:03:55.389Z,31.40
2024-02-26T11:04:54.903Z,30.75
2024-02-26T11:05:54.855Z,29.59
2024-02-26T11:06:54.763Z,27.74
2024-02-26T11:07:54.542Z,27.47
2024-02-26T11:08:54.784Z,29.02
2024-02-26T11:10:17.100Z,28.90
2024-02-26T11:10:54.268Z,30.01
2024-02-26T11:11:55.072Z,29.24
2024-02-26T11:12:54.175Z,28.49
2024-02-26T11:13:54.303Z,27.70
2024-02-26T11:14:53.886Z,29.29
2024-02-26T11:15:53.783Z,29.36
2024-02-26T11:16:53.728Z,30.32
2024-02-26T11:17:53.797Z,29.60
2024-02-26T11:18:53.783Z,30.15
2024-02-26T11:19:53.671Z,30.25
2024-02-26T11:20:53.577Z,30.43
2024-02-26T11:21:53.362Z,30.18
2024-02-26T11:22:53.397Z,30.16
2024-02-26T11:23:53.782Z,30.19
2024-02-26T11:24:53.302Z,31.06
2024-02-26T11:25:53.267Z,31.20
2024-02-26T11:26:53.208Z,30.57
2024-02-26T11:27:53.186Z,29.98
2024-02-26T11:28:53.305Z,30.44
2024-02-26T11:29:53.351Z,30.41
2024-02-26T11:30:53.103Z,29.90
2024-02-26T11:31:53.123Z,30.32
2024-02-26T11:32:53.336Z,30.41
2024-02-26T11:33:53.324Z,30.45
2024-02-26T11:34:53.255Z,30.41
2024-02-26T11:35:53.275Z,30.66
2024-02-26T11:36:54.358Z,30.45
2024-02-26T11:37:53.129Z,30.47
2024-02-26T11:38:53.348Z,30.42
2024-02-26T11:39:53.233Z,30.58
2024-02-26T11:40:53.240Z,30.71
2024-02-26T11:41:53.351Z,30.71
2024-02-26T11:42:53.344Z,30.97
2024-02-26T11:43:53.262Z,30.85
2024-02-26T11:44:53.816Z,30.89
2024-02-26T11:45:53.352Z,31.08
2024-02-26T11:46:53.333Z,31.33
2024-02-26T11:47:53.620Z,31.06
2024-02-26T11:48:53.518Z,31.31
2024-02-26T11:49:53.821Z,31.48
2024-02-26T11:50:53.516Z,31.45
2024-02-26T11:51:53.550Z,31.40
2024-02-26T11:52:53.482Z,31.62
2024-02-26T11:53:53.518Z,31.77
2024-02-26T11:54:53.865Z,31.60
2024-02-26T11:55:53.658Z,31.38
2024-02-26T11:56:53.582Z,31.32
2024-02-26T11:57:53.574Z,31.65
2024-02-26T11:59:19.262Z,31.73
2024-02-26T11:59:53.903Z,31.73
2024-02-26T12:00:53.666Z,31.49
2024-02-26T12:01:53.602Z,31.25
2024-02-26T12:02:53.599Z,31.23
2024-02-26T12:03:54.075Z,31.19
2024-02-26T12:04:53.892Z,31.45
2024-02-26T12:05:53.573Z,31.44
2024-02-26T12:06:53.818Z,31.44
2024-02-26T12:07:53.538Z,31.47
2024-02-26T12:08:53.588Z,31.54
2024-02-26T12:09:53.761Z,31.96
2024-02-26T12:10:53.466Z,31.96
2024-02-26T12:11:53.442Z,32.01
2024-02-26T12:12:53.542Z,31.59
2024-02-26T12:13:53.399Z,31.70
2024-02-26T12:14:53.881Z,32.15
2024-02-26T12:15:53.560Z,31.84
2024-02-26T12:16:53.480Z,32.14
2024-02-26T12:17:53.587Z,31.97
2024-02-26T12:18:53.601Z,31.90
2024-02-26T12:19:53.529Z,31.91
2024-02-26T12:20:53.782Z,32.01
2024-02-26T12:21:53.544Z,32.34
2024-02-26T12:22:53.526Z,32.41
2024-02-26T12:23:53.456Z,32.53
2024-02-26T12:24:53.524Z,32.28
2024-02-26T12:25:53.538Z,32.09
2024-02-26T12:26:53.467Z,32.52
2024-02-26T12:27:53.487Z,32.36
2024-02-26T12:28:53.780Z,32.11
2024-02-26T12:29:53.830Z,32.24
2024-02-26T12:32:07.842Z,32.74
2024-02-26T12:33:03.817Z,32.71
2024-02-26T12:34:03.914Z,33.14
2024-02-26T12:35:04.213Z,32.63
2024-02-26T12:36:03.804Z,32.34
2024-02-26T12:37:03.691Z,32.58
2024-02-26T12:38:03.875Z,32.70
2024-02-26T12:39:03.813Z,32.82
2024-02-26T12:40:04.231Z,32.64
2024-02-26T12:41:03.908Z,32.77
2024-02-26T12:42:04.005Z,33.07
2024-02-26T12:43:03.936Z,33.23
2024-02-26T12:44:03.942Z,33.36
2024-02-26T12:45:04.085Z,33.34
2024-02-26T12:46:03.958Z,33.39
2024-02-26T12:47:04.115Z,33.48
2024-02-26T12:48:04.110Z,33.54
2024-02-26T12:49:04.240Z,33.40
2024-02-26T12:50:06.970Z,33.65
2024-02-26T12:51:04.265Z,33.54
2024-02-26T12:52:04.200Z,33.37
2024-02-26T12:53:04.176Z,33.41
2024-02-26T12:54:04.308Z,33.40
2024-02-26T12:55:04.209Z,33.33
2024-02-26T12:56:05.517Z,33.29